Time;durP1;ratioP1;P1;durP2;ratioP2;P2;SDS_P1;SDS_P2;PMS_P1;PMS_P2;Temp;Humidity;BMP_temperature;BMP_pressure;BME280_temperature;BME280_humidity;BME280_pressure;Samples;Min_cycle;Max_cycle;Signal;HPM_P1;HPM_P2
2021/10/15 00:01:28;;;;;;;8.00;6.32;;;22.30;39.50;;;;;;4783170;29;20056;-57
2021/10/15 00:03:55;;;;;;;8.35;6.22;;;22.30;39.50;;;;;;4782652;29;20059;-57
2021/10/15 00:06:23;;;;;;;7.18;5.78;;;22.30;39.40;;;;;;4781360;29;20055;-58
2021/10/15 00:08:50;;;;;;;7.78;5.95;;;22.30;39.40;;;;;;4769956;29;20055;-57
2021/10/15 00:11:18;;;;;;;7.53;6.35;;;22.30;39.40;;;;;;4782388;29;20080;-57
2021/10/15 00:13:45;;;;;;;9.10;6.75;;;22.30;39.40;;;;;;4782859;29;20087;-56
2021/10/15 00:16:12;;;;;;;8.68;6.30;;;22.30;39.40;;;;;;4782719;29;20070;-57
2021/10/15 00:18:40;;;;;;;6.80;6.03;;;22.30;39.30;;;;;;4775182;29;20047;-57
2021/10/15 00:21:07;;;;;;;6.97;5.53;;;22.30;39.30;;;;;;4781906;29;20063;-57
2021/10/15 00:23:34;;;;;;;8.98;6.10;;;22.30;39.30;;;;;;4782427;29;20537;-57
2021/10/15 00:26:01;;;;;;;7.93;6.18;;;22.30;39.30;;;;;;4783128;29;20056;-57
2021/10/15 00:28:29;;;;;;;8.10;6.22;;;22.30;39.30;;;;;;4776006;29;20066;-58
2021/10/15 00:30:58;;;;;;;8.40;6.15;;;22.30;39.30;;;;;;4780031;29;20066;-56
2021/10/15 00:33:25;;;;;;;7.22;5.82;;;22.30;39.40;;;;;;4782841;29;20051;-57
2021/10/15 00:35:52;;;;;;;7.75;6.35;;;22.30;39.40;;;;;;4783029;29;20101;-57
2021/10/15 00:38:20;;;;;;;8.27;6.40;;;22.20;39.40;;;;;;4776540;29;20051;-56
2021/10/15 00:40:47;;;;;;;8.40;5.78;;;22.20;39.40;;;;;;4780402;29;20112;-57
2021/10/15 00:43:14;;;;;;;7.35;5.53;;;22.20;39.50;;;;;;4782318;29;20146;-56
2021/10/15 00:45:43;;;;;;;6.88;5.57;;;22.20;39.50;;;;;;4782117;29;20055;-57
2021/10/15 00:48:10;;;;;;;7.18;5.82;;;22.20;39.50;;;;;;4777077;29;20148;-57
2021/10/15 00:50:41;;;;;;;8.32;6.63;;;22.20;39.60;;;;;;4780446;29;20062;-57
2021/10/15 00:53:08;;;;;;;6.97;5.55;;;22.20;40.10;;;;;;4782097;29;20561;-57
2021/10/15 00:55:35;;;;;;;6.20;5.57;;;22.10;39.50;;;;;;4782149;29;20835;-58
2021/10/15 00:58:03;;;;;;;7.32;6.15;;;22.20;39.50;;;;;;4776662;29;20142;-58
2021/10/15 01:00:31;;;;;;;6.95;5.78;;;22.10;39.50;;;;;;4779808;29;20051;-57
2021/10/15 01:02:58;;;;;;;8.35;6.22;;;22.10;39.50;;;;;;4783335;29;20501;-57
2021/10/15 01:05:25;;;;;;;8.20;6.38;;;22.10;39.60;;;;;;4785522;29;20051;-57
2021/10/15 01:07:53;;;;;;;6.38;5.53;;;22.10;39.60;;;;;;4782311;29;20174;-57
2021/10/15 01:10:21;;;;;;;7.50;5.70;;;22.10;39.60;;;;;;4779857;29;20116;-57
2021/10/15 01:12:48;;;;;;;8.05;6.25;;;22.10;39.60;;;;;;4784882;30;20066;-57
2021/10/15 01:15:16;;;;;;;6.75;6.05;;;22.10;39.60;;;;;;4785413;29;20490;-57
2021/10/15 01:17:44;;;;;;;7.05;5.68;;;22.10;39.60;;;;;;4781982;29;20130;-57
2021/10/15 01:20:11;;;;;;;8.18;5.60;;;22.10;39.60;;;;;;4780905;29;20055;-57
2021/10/15 01:22:38;;;;;;;6.68;5.78;;;22.10;39.70;;;;;;4784533;30;20138;-57
2021/10/15 01:25:05;;;;;;;7.63;6.07;;;22.10;39.70;;;;;;4785290;29;20102;-57
2021/10/15 01:27:32;;;;;;;7.78;6.05;;;22.10;39.70;;;;;;4781782;29;20066;-55
2021/10/15 01:30:00;;;;;;;7.40;6.10;;;22.10;39.70;;;;;;4779907;29;20130;-57
2021/10/15 01:32:27;;;;;;;7.40;5.88;;;22.10;39.70;;;;;;4785440;29;20059;-57
2021/10/15 01:34:54;;;;;;;6.97;6.20;;;22.10;39.60;;;;;;4785240;29;20055;-57
2021/10/15 01:37:21;;;;;;;7.72;6.15;;;22.10;39.60;;;;;;4784104;29;20147;-58
2021/10/15 01:39:48;;;;;;;7.72;5.90;;;22.10;39.70;;;;;;4777846;29;20051;-57
2021/10/15 01:45:03;;;;;;;7.78;5.90;;;22.10;39.60;;;;;;4785115;29;20134;-57
2021/10/15 01:47:30;;;;;;;7.47;5.65;;;22.10;39.50;;;;;;4782296;29;20086;-57
2021/10/15 01:49:57;;;;;;;8.00;6.28;;;22.10;39.50;;;;;;4780957;29;20055;-57
2021/10/15 01:52:24;;;;;;;7.30;5.55;;;22.10;39.50;;;;;;4785245;29;20065;-57
2021/10/15 01:54:51;;;;;;;6.25;5.57;;;22.10;39.50;;;;;;4785316;29;20138;-57
2021/10/15 01:57:18;;;;;;;7.75;6.13;;;22.10;39.50;;;;;;4784567;29;20553;-59
2021/10/15 01:59:45;;;;;;;7.80;5.40;;;22.10;39.50;;;;;;4775186;29;20059;-56
2021/10/15 02:02:12;;;;;;;6.80;5.95;;;22.10;39.40;;;;;;4785063;29;20062;-57
2021/10/15 02:04:39;;;;;;;5.63;5.05;;;22.10;39.40;;;;;;4784782;29;20601;-57
2021/10/15 02:07:06;;;;;;;6.18;5.07;;;22.10;39.40;;;;;;4784988;29;20116;-57
2021/10/15 02:09:34;;;;;;;6.22;5.35;;;22.10;39.40;;;;;;4775856;29;20111;-56
2021/10/15 02:12:03;;;;;;;6.28;5.07;;;22.10;39.40;;;;;;4783478;30;20134;-57
2021/10/15 02:14:30;;;;;;;7.43;5.35;;;22.10;39.40;;;;;;4783720;29;20058;-56
2021/10/15 02:16:57;;;;;;;7.03;4.78;;;22.00;39.40;;;;;;4784459;29;20063;-57
2021/10/15 02:19:26;;;;;;;5.88;5.25;;;22.00;39.40;;;;;;4770831;29;20147;-56
2021/10/15 02:21:53;;;;;;;6.53;5.28;;;22.00;39.50;;;;;;4766881;30;20087;-57
2021/10/15 02:24:20;;;;;;;6.05;5.38;;;22.00;39.50;;;;;;4766862;30;20105;-57
2021/10/15 02:26:47;;;;;;;6.57;5.20;;;22.00;39.60;;;;;;4766555;30;20577;-57
2021/10/15 02:29:15;;;;;;;5.15;4.65;;;22.00;39.60;;;;;;4773239;30;20457;-57
2021/10/15 02:31:42;;;;;;;6.72;5.00;;;21.90;39.50;;;;;;4784027;29;20150;-56
2021/10/15 02:34:09;;;;;;;6.72;5.38;;;22.00;39.60;;;;;;4783599;30;20074;-57
2021/10/15 02:36:36;;;;;;;5.20;4.53;;;21.90;39.60;;;;;;4782973;29;20061;-57
2021/10/15 02:39:04;;;;;;;5.22;4.53;;;21.90;39.60;;;;;;4777277;29;20158;-57
2021/10/15 02:41:31;;;;;;;5.72;5.10;;;21.90;39.50;;;;;;4783907;29;20094;-56
2021/10/15 02:43:58;;;;;;;6.57;4.95;;;21.90;39.50;;;;;;4783854;29;20047;-57
2021/10/15 02:46:25;;;;;;;5.88;4.80;;;21.90;39.90;;;;;;4781394;29;20098;-57
2021/10/15 02:48:52;;;;;;;6.78;4.97;;;21.90;39.60;;;;;;4775813;29;20570;-57
2021/10/15 02:51:19;;;;;;;7.03;5.35;;;21.90;39.70;;;;;;4784058;29;20094;-57
2021/10/15 02:53:46;;;;;;;6.00;5.15;;;21.90;39.60;;;;;;4783931;29;20138;-57
2021/10/15 02:56:14;;;;;;;5.35;4.78;;;21.90;39.60;;;;;;4784362;29;20138;-57
2021/10/15 02:58:41;;;;;;;6.40;4.53;;;21.90;39.60;;;;;;4775942;29;20142;-58
2021/10/15 03:01:08;;;;;;;5.80;4.97;;;21.90;39.70;;;;;;4783503;29;20142;-56
2021/10/15 03:03:35;;;;;;;6.50;4.90;;;21.90;39.70;;;;;;4784026;29;20147;-57
2021/10/15 03:06:02;;;;;;;6.80;5.03;;;21.90;39.70;;;;;;4782513;29;20166;-56
2021/10/15 03:08:30;;;;;;;7.75;5.60;;;21.90;39.70;;;;;;4776856;29;20082;-57
2021/10/15 03:10:57;;;;;;;6.07;5.03;;;21.90;39.70;;;;;;4780398;29;20143;-56
2021/10/15 03:13:24;;;;;;;5.40;4.85;;;21.90;39.70;;;;;;4783644;29;20142;-56
2021/10/15 03:15:52;;;;;;;7.13;4.88;;;21.90;39.70;;;;;;4783806;29;20460;-56
2021/10/15 03:18:19;;;;;;;5.57;4.78;;;21.90;39.70;;;;;;4776007;29;20059;-56
2021/10/15 03:20:46;;;;;;;5.93;4.88;;;21.90;39.60;;;;;;4781237;29;20111;-56
2021/10/15 03:23:14;;;;;;;6.28;4.82;;;21.90;39.60;;;;;;4783255;29;20566;-57
2021/10/15 03:25:41;;;;;;;6.47;4.85;;;21.90;39.60;;;;;;4783205;29;20083;-57
2021/10/15 03:28:09;;;;;;;5.60;4.68;;;21.90;39.60;;;;;;4778389;29;20063;-57
2021/10/15 03:30:36;;;;;;;6.07;4.70;;;21.90;39.60;;;;;;4780334;29;20051;-57
2021/10/15 03:33:05;;;;;;;6.15;4.57;;;22.00;39.60;;;;;;4783729;29;20479;-57
2021/10/15 03:35:33;;;;;;;5.85;4.40;;;22.00;39.50;;;;;;4783309;29;20130;-56
2021/10/15 03:38:00;;;;;;;5.15;4.40;;;22.00;39.50;;;;;;4776731;29;20058;-57
2021/10/15 03:40:27;;;;;;;4.82;4.07;;;22.00;39.50;;;;;;4770297;29;20055;-57
2021/10/15 03:42:54;;;;;;;5.15;4.55;;;22.00;39.50;;;;;;4796440;29;20097;-58
2021/10/15 03:45:21;;;;;;;5.80;4.45;;;22.00;39.40;;;;;;4782261;29;20084;-57
2021/10/15 03:47:49;;;;;;;5.20;4.00;;;22.00;39.40;;;;;;4779742;29;20151;-57
2021/10/15 03:50:16;;;;;;;4.72;4.20;;;22.00;39.40;;;;;;4777851;29;20059;-57
2021/10/15 03:52:43;;;;;;;4.82;4.03;;;22.00;39.40;;;;;;4783240;29;20134;-57
2021/10/15 03:55:12;;;;;;;5.70;4.25;;;21.90;39.30;;;;;;4781180;29;20571;-57
2021/10/15 03:57:41;;;;;;;4.70;4.10;;;21.90;39.40;;;;;;4779055;29;20059;-57
2021/10/15 04:00:10;;;;;;;5.07;4.50;;;21.90;39.60;;;;;;4778195;29;20061;-57
2021/10/15 04:02:43;;;;;;;4.88;3.78;;;21.90;39.50;;;;;;4783280;29;20112;-57
2021/10/15 04:05:12;;;;;;;5.60;4.55;;;21.90;39.50;;;;;;4782517;29;20059;-56
2021/10/15 04:07:39;;;;;;;4.40;4.00;;;21.80;39.40;;;;;;4778299;29;20058;-57
2021/10/15 04:10:08;;;;;;;4.55;3.35;;;21.80;39.50;;;;;;4776407;29;20703;-57
2021/10/15 04:12:36;;;;;;;5.20;4.32;;;21.80;39.50;;;;;;4770533;30;20108;-57
2021/10/15 04:15:05;;;;;;;5.25;4.30;;;21.80;39.50;;;;;;4791944;29;20135;-57
2021/10/15 04:17:32;;;;;;;5.15;4.28;;;21.80;39.50;;;;;;4774923;29;20058;-57
2021/10/15 04:19:59;;;;;;;4.97;3.90;;;21.80;39.50;;;;;;4776357;29;20145;-56
2021/10/15 04:22:26;;;;;;;5.05;4.55;;;21.80;39.50;;;;;;4782311;29;20094;-57
2021/10/15 04:24:54;;;;;;;5.57;4.78;;;21.80;39.50;;;;;;4782541;29;20078;-56
2021/10/15 04:27:21;;;;;;;4.85;4.25;;;21.80;39.50;;;;;;4794904;29;20138;-56
2021/10/15 04:29:48;;;;;;;3.85;3.30;;;21.80;39.50;;;;;;4775534;29;20051;-56
2021/10/15 04:32:15;;;;;;;4.65;3.78;;;21.80;39.50;;;;;;4782363;29;20083;-57
2021/10/15 04:34:42;;;;;;;4.20;3.65;;;21.80;39.60;;;;;;4782773;29;20130;-58
2021/10/15 04:37:09;;;;;;;5.03;3.85;;;21.80;39.60;;;;;;4782103;29;20138;-56
2021/10/15 04:39:36;;;;;;;3.78;3.28;;;21.80;39.60;;;;;;4771282;29;20505;-57
2021/10/15 04:42:04;;;;;;;5.30;4.07;;;21.80;39.60;;;;;;4795638;29;20200;-57
2021/10/15 04:44:31;;;;;;;4.00;3.65;;;21.80;39.60;;;;;;4778605;29;20180;-55
2021/10/15 04:46:58;;;;;;;5.47;4.10;;;21.80;39.70;;;;;;4782163;29;20158;-57
2021/10/15 04:49:25;;;;;;;4.05;3.65;;;21.80;39.70;;;;;;4772224;29;20054;-56
2021/10/15 04:51:52;;;;;;;4.00;3.60;;;21.80;39.70;;;;;;4781114;29;20078;-57
2021/10/15 04:54:19;;;;;;;4.10;3.58;;;21.70;39.60;;;;;;4781960;29;20058;-57
2021/10/15 04:56:46;;;;;;;5.07;3.65;;;21.80;39.70;;;;;;4781058;29;20094;-57
2021/10/15 04:59:13;;;;;;;4.07;3.65;;;21.70;39.60;;;;;;4771141;29;20225;-56
2021/10/15 05:01:40;;;;;;;4.43;3.85;;;21.70;39.60;;;;;;4773304;29;20134;-57
2021/10/15 05:04:07;;;;;;;3.95;3.55;;;21.80;39.60;;;;;;4770209;30;20052;-57
2021/10/15 05:06:35;;;;;;;4.78;4.00;;;21.80;39.60;;;;;;4779059;30;20138;-57
2021/10/15 05:09:25;;;;;;;4.53;4.10;;;21.80;39.10;;;;;;4771096;29;20497;-58
2021/10/15 05:11:54;;;;;;;4.70;4.18;;;21.80;38.80;;;;;;4778280;30;20079;-56
2021/10/15 05:14:21;;;;;;;5.43;3.88;;;21.80;38.60;;;;;;4775731;29;20143;-55
2021/10/15 05:16:52;;;;;;;4.18;3.78;;;21.80;38.50;;;;;;4773731;29;20097;-56
2021/10/15 05:19:20;;;;;;;5.18;3.90;;;21.80;38.40;;;;;;4759561;29;20051;-52
2021/10/15 05:21:47;;;;;;;4.68;4.10;;;21.80;38.50;;;;;;4778529;29;20247;-56
2021/10/15 05:24:15;;;;;;;4.20;3.60;;;21.80;38.60;;;;;;4771494;29;20146;-56
2021/10/15 05:26:42;;;;;;;5.95;4.63;;;21.80;38.70;;;;;;4773241;29;20520;-56
2021/10/15 05:29:09;;;;;;;4.68;4.15;;;21.80;38.70;;;;;;4766198;29;20138;-58
2021/10/15 05:31:36;;;;;;;5.68;4.40;;;21.80;38.60;;;;;;4772084;29;20498;-53
2021/10/15 05:34:04;;;;;;;5.00;3.90;;;21.90;38.60;;;;;;4771562;29;20079;-53
2021/10/15 05:36:31;;;;;;;5.53;4.60;;;21.90;38.50;;;;;;4770834;29;20105;-52
2021/10/15 05:38:58;;;;;;;7.18;4.75;;;22.00;38.40;;;;;;4762088;29;20082;-54
2021/10/15 05:41:25;;;;;;;5.78;4.45;;;22.00;38.30;;;;;;4769620;30;20075;-55
2021/10/15 05:43:52;;;;;;;5.78;4.53;;;22.10;38.20;;;;;;4770118;29;20055;-50
2021/10/15 05:46:19;;;;;;;6.30;4.90;;;22.20;38.00;;;;;;4775447;29;20047;-55
2021/10/15 05:48:47;;;;;;;8.48;5.82;;;22.30;37.80;;;;;;4769384;29;20051;-54
2021/10/15 05:51:14;;;;;;;8.00;6.05;;;22.30;37.40;;;;;;4770473;30;20134;-50
2021/10/15 05:53:43;;;;;;;8.70;6.47;;;22.30;37.00;;;;;;4778552;30;20150;-50
2021/10/15 05:56:35;;;;;;;8.57;6.15;;;22.40;36.70;;;;;;4774716;30;20476;-52
2021/10/15 05:59:03;;;;;;;10.07;6.88;;;22.40;36.40;;;;;;4763990;29;20047;-54
2021/10/15 06:01:33;;;;;;;12.68;7.13;;;22.50;36.20;;;;;;4769674;29;20059;-51
2021/10/15 06:15:00;;;;;;;9.38;7.10;;;22.80;36.20;;;;;;4778959;30;20116;-54
2021/10/15 06:17:28;;;;;;;8.93;6.43;;;22.80;36.20;;;;;;4773628;29;20113;-57
2021/10/15 06:19:55;;;;;;;8.35;6.03;;;22.90;36.40;;;;;;4764941;30;20059;-54
2021/10/15 06:22:27;;;;;;;8.57;6.35;;;22.90;36.50;;;;;;4778333;29;20083;-55
2021/10/15 06:24:55;;;;;;;9.98;6.50;;;23.00;36.40;;;;;;4777711;29;20139;-55
2021/10/15 06:27:25;;;;;;;8.60;6.57;;;23.10;36.40;;;;;;4774060;29;20057;-53
2021/10/15 06:29:53;;;;;;;10.93;6.88;;;23.20;36.40;;;;;;4763490;29;20055;-57
2021/10/15 06:32:22;;;;;;;8.95;5.43;;;23.20;36.40;;;;;;4775299;29;20051;-56
2021/10/15 06:34:50;;;;;;;8.27;6.67;;;23.30;36.30;;;;;;4775630;29;20082;-55
2021/10/15 06:37:17;;;;;;;6.28;5.45;;;23.40;36.30;;;;;;4770687;29;20339;-57
2021/10/15 06:39:51;;;;;;;7.55;6.68;;;23.50;36.20;;;;;;4764672;30;20138;-56
2021/10/15 06:42:18;;;;;;;9.85;6.13;;;23.50;36.10;;;;;;4772516;29;20050;-57
2021/10/15 06:44:45;;;;;;;8.27;5.57;;;23.60;36.10;;;;;;4777433;29;20051;-54
2021/10/15 06:47:13;;;;;;;8.82;6.25;;;23.60;36.10;;;;;;4777467;29;20048;-56
2021/10/15 06:49:40;;;;;;;8.05;6.05;;;23.70;36.00;;;;;;4762166;29;20091;-55
2021/10/15 06:52:07;;;;;;;9.63;6.38;;;23.80;36.00;;;;;;4772831;29;20082;-52
2021/10/15 06:54:34;;;;;;;6.90;5.60;;;23.80;35.80;;;;;;4775849;29;20108;-56
2021/10/15 06:57:02;;;;;;;8.68;6.03;;;23.90;35.70;;;;;;4777666;29;20120;-54
2021/10/15 06:59:30;;;;;;;7.47;5.55;;;23.90;35.60;;;;;;4761989;29;20544;-54
2021/10/15 07:01:57;;;;;;;6.28;5.57;;;24.00;35.50;;;;;;4789042;29;20051;-53
2021/10/15 07:04:24;;;;;;;6.80;5.05;;;24.00;35.40;;;;;;4773514;29;20493;-57
2021/10/15 07:06:51;;;;;;;8.05;6.00;;;24.10;35.50;;;;;;4777009;29;20461;-57
2021/10/15 07:09:18;;;;;;;6.80;5.30;;;24.10;35.50;;;;;;4762419;29;20059;-54
2021/10/15 07:11:47;;;;;;;7.43;4.75;;;24.10;35.50;;;;;;4772545;30;20153;-53
2021/10/15 07:14:16;;;;;;;7.55;5.88;;;24.20;35.60;;;;;;4774197;29;20043;-57
2021/10/15 07:16:44;;;;;;;6.57;5.57;;;24.30;35.50;;;;;;4769772;29;20086;-52
2021/10/15 07:19:13;;;;;;;7.95;5.03;;;24.30;35.50;;;;;;4762703;29;20314;-53
2021/10/15 07:21:40;;;;;;;6.75;5.40;;;24.30;35.40;;;;;;4768286;29;20159;-54
2021/10/15 07:24:07;;;;;;;8.45;5.60;;;24.30;35.30;;;;;;4777642;30;20071;-51
2021/10/15 07:26:37;;;;;;;6.43;5.45;;;24.40;35.40;;;;;;4773814;30;20079;-55
2021/10/15 07:29:06;;;;;;;6.18;5.55;;;24.40;35.30;;;;;;4763746;30;20142;-55
2021/10/15 07:31:35;;;;;;;6.35;5.22;;;24.50;35.30;;;;;;4773328;30;20059;-55
2021/10/15 07:34:05;;;;;;;8.63;6.10;;;24.50;35.30;;;;;;4773388;30;20087;-53
2021/10/15 07:36:33;;;;;;;9.80;5.20;;;24.50;35.30;;;;;;4778931;29;20048;-55
2021/10/15 07:39:01;;;;;;;7.07;5.93;;;24.60;35.20;;;;;;4763695;29;20086;-54
2021/10/15 07:41:28;;;;;;;6.93;5.75;;;24.60;35.10;;;;;;4778895;29;20573;-52
2021/10/15 07:43:56;;;;;;;8.48;5.80;;;24.70;35.10;;;;;;4774620;29;20121;-52
2021/10/15 07:46:23;;;;;;;7.85;5.93;;;24.70;35.00;;;;;;4775141;30;20457;-52
2021/10/15 07:48:51;;;;;;;8.88;6.30;;;24.80;35.00;;;;;;4762765;29;20065;-56
2021/10/15 07:51:18;;;;;;;7.45;5.47;;;24.80;35.00;;;;;;4770279;30;20134;-56
2021/10/15 07:53:45;;;;;;;7.47;6.13;;;24.90;35.00;;;;;;4775712;29;20342;-58
2021/10/15 07:56:12;;;;;;;6.95;5.88;;;24.90;35.00;;;;;;4773571;29;20055;-56
2021/10/15 07:58:39;;;;;;;9.65;6.22;;;25.00;35.10;;;;;;4766954;29;20082;-58
2021/10/15 08:01:06;;;;;;;8.27;6.30;;;25.00;35.10;;;;;;4770508;29;20051;-54
2021/10/15 08:03:34;;;;;;;8.52;6.10;;;25.10;35.20;;;;;;4776759;29;20135;-55
2021/10/15 08:06:01;;;;;;;8.93;5.15;;;25.10;35.10;;;;;;4773494;30;20047;-54
2021/10/15 08:08:28;;;;;;;9.15;6.80;;;25.10;35.00;;;;;;4768347;29;20079;-51
2021/10/15 08:10:55;;;;;;;8.45;6.35;;;25.20;34.90;;;;;;4770798;29;20124;-54
2021/10/15 08:13:23;;;;;;;9.25;6.57;;;25.20;34.80;;;;;;4776805;29;20059;-59
2021/10/15 08:15:50;;;;;;;8.18;6.00;;;25.20;34.70;;;;;;4779028;29;20047;-57
2021/10/15 08:18:17;;;;;;;7.18;5.78;;;25.30;34.70;;;;;;4765372;29;20425;-56
2021/10/15 08:20:45;;;;;;;7.95;5.47;;;25.30;34.60;;;;;;4768997;29;20075;-56
2021/10/15 08:23:12;;;;;;;16.77;6.75;;;25.30;34.60;;;;;;4771957;30;20161;-56
2021/10/15 08:25:41;;;;;;;7.93;5.97;;;25.40;34.70;;;;;;4772669;29;20054;-55
2021/10/15 08:28:09;;;;;;;6.97;5.30;;;25.40;34.70;;;;;;4767612;29;20047;-54
2021/10/15 08:30:36;;;;;;;8.20;5.82;;;25.40;34.70;;;;;;4764198;29;20377;-56
2021/10/15 08:33:03;;;;;;;6.68;5.47;;;25.40;34.60;;;;;;4774550;29;20122;-54
2021/10/15 08:35:30;;;;;;;9.30;6.05;;;25.50;34.70;;;;;;4774021;29;20186;-53
2021/10/15 08:37:57;;;;;;;7.82;6.43;;;25.50;34.60;;;;;;4768535;29;20084;-55
2021/10/15 08:40:26;;;;;;;8.50;5.30;;;25.50;34.70;;;;;;4766915;29;20079;-56
2021/10/15 08:42:56;;;;;;;6.80;5.55;;;25.50;34.60;;;;;;4774254;29;20502;-53
2021/10/15 08:45:34;;;;;;;8.30;4.88;;;25.60;34.60;;;;;;4773999;29;20509;-56
2021/10/15 08:48:03;;;;;;;8.75;5.20;;;25.60;34.60;;;;;;4767455;29;20153;-54
2021/10/15 08:50:39;;;;;;;9.68;5.68;;;25.60;34.60;;;;;;4767909;29;20087;-56
2021/10/15 08:53:07;;;;;;;7.70;4.93;;;25.60;34.60;;;;;;4775339;29;20112;-56
2021/10/15 08:55:34;;;;;;;7.75;5.82;;;25.60;34.50;;;;;;4775353;29;20478;-55
2021/10/15 08:58:02;;;;;;;6.97;4.97;;;25.70;34.60;;;;;;4771988;29;20051;-53
2021/10/15 09:00:35;;;;;;;7.68;5.20;;;25.70;34.60;;;;;;4766389;29;20555;-54
2021/10/15 09:03:21;;;;;;;16.25;6.15;;;25.70;34.60;;;;;;4772994;30;20055;-54
2021/10/15 09:05:55;;;;;;;10.35;5.47;;;25.70;34.50;;;;;;4777649;30;20058;-56
2021/10/15 09:08:24;;;;;;;8.85;5.85;;;25.70;34.20;;;;;;4768861;29;20116;-54
2021/10/15 09:10:52;;;;;;;10.65;5.50;;;25.70;34.00;;;;;;4767718;29;20052;-54
2021/10/15 09:13:21;;;;;;;6.13;5.18;;;25.80;33.90;;;;;;4772972;29;20175;-53
2021/10/15 09:15:51;;;;;;;6.68;5.40;;;25.70;33.60;;;;;;4776819;29;20051;-55
2021/10/15 09:18:29;;;;;;;9.45;5.82;;;25.80;33.50;;;;;;4767069;29;20051;-55
2021/10/15 09:20:56;;;;;;;9.35;6.05;;;25.80;33.50;;;;;;4765465;29;20060;-54
2021/10/15 09:23:47;;;;;;;10.13;5.55;;;25.80;33.30;;;;;;4773092;29;20138;-57
2021/10/15 09:26:16;;;;;;;8.43;5.35;;;25.80;33.20;;;;;;4774475;29;20553;-54
2021/10/15 09:28:47;;;;;;;6.82;4.93;;;25.80;33.20;;;;;;4769369;29;20142;-54
2021/10/15 09:31:15;;;;;;;7.35;4.40;;;25.80;33.10;;;;;;4772883;29;20128;-55
2021/10/15 09:33:56;;;;;;;8.50;4.95;;;25.90;33.10;;;;;;4776275;30;20053;-54
2021/10/15 09:36:25;;;;;;;8.15;4.90;;;25.90;33.10;;;;;;4777082;30;20429;-56
2021/10/15 09:38:52;;;;;;;6.18;4.43;;;25.90;32.90;;;;;;4766010;29;20155;-55
2021/10/15 09:41:40;;;;;;;6.95;4.43;;;25.90;32.90;;;;;;4770963;29;20051;-54
2021/10/15 09:44:29;;;;;;;5.38;4.47;;;26.00;32.90;;;;;;4780198;29;20066;-54
2021/10/15 09:47:14;;;;;;;4.82;3.92;;;26.00;32.80;;;;;;4778251;30;20051;-55
2021/10/15 09:49:53;;;;;;;6.03;3.95;;;26.00;32.80;;;;;;4754475;29;20055;-58
2021/10/15 09:52:36;;;;;;;9.32;4.07;;;26.00;32.70;;;;;;4772276;29;20052;-56
2021/10/15 09:55:09;;;;;;;11.98;4.32;;;26.00;32.70;;;;;;4774284;29;20051;-55
2021/10/15 09:57:39;;;;;;;3.88;3.47;;;26.00;32.70;;;;;;4770879;29;20474;-57
2021/10/15 10:00:12;;;;;;;4.15;3.72;;;26.00;32.80;;;;;;4762715;29;20083;-57
2021/10/15 10:02:40;;;;;;;6.25;3.85;;;26.00;32.90;;;;;;4776136;29;20059;-57
2021/10/15 10:05:13;;;;;;;5.80;3.97;;;26.00;33.00;;;;;;4776323;29;20548;-52
2021/10/15 10:07:42;;;;;;;3.90;3.28;;;26.00;33.10;;;;;;4773809;29;20059;-59
2021/10/15 10:10:13;;;;;;;7.22;3.72;;;26.00;33.20;;;;;;4769033;29;20149;-56
2021/10/15 10:12:41;;;;;;;6.05;3.78;;;26.00;33.30;;;;;;4774434;29;20063;-56
2021/10/15 10:15:12;;;;;;;7.93;3.00;;;25.90;33.20;;;;;;4777479;29;20094;-54
2021/10/15 10:17:52;;;;;;;11.25;3.47;;;25.90;33.40;;;;;;4769428;29;20689;-56
2021/10/15 10:20:26;;;;;;;3.92;3.35;;;25.90;33.50;;;;;;4770891;30;20074;-56
2021/10/15 10:23:07;;;;;;;4.45;3.85;;;25.90;33.60;;;;;;4776124;29;20142;-56
2021/10/15 10:25:35;;;;;;;3.05;2.85;;;25.90;33.60;;;;;;4774341;29;20047;-58
2021/10/15 10:28:19;;;;;;;7.72;3.78;;;25.90;33.60;;;;;;4765595;29;20051;-57
2021/10/15 10:30:53;;;;;;;4.43;2.95;;;25.80;33.40;;;;;;4767765;29;20801;-57
2021/10/15 10:33:22;;;;;;;4.38;3.08;;;25.80;33.50;;;;;;4773710;29;20087;-55
2021/10/15 10:35:50;;;;;;;4.93;3.15;;;25.80;33.50;;;;;;4774693;29;20154;-56
2021/10/15 10:38:26;;;;;;;4.65;2.90;;;25.80;33.50;;;;;;4761708;29;20081;-56
2021/10/15 10:41:12;;;;;;;4.50;3.08;;;25.80;33.50;;;;;;4762209;29;20063;-57
2021/10/15 10:44:08;;;;;;;4.35;3.15;;;25.80;33.60;;;;;;4773764;29;20051;-55
2021/10/15 10:46:37;;;;;;;4.57;3.22;;;25.80;33.60;;;;;;4773067;29;20079;-58
2021/10/15 10:49:23;;;;;;;3.55;3.25;;;25.80;33.70;;;;;;4763611;29;20055;-55
2021/10/15 10:52:14;;;;;;;4.88;2.63;;;25.80;33.80;;;;;;4774927;29;20062;-58
2021/10/15 10:54:43;;;;;;;3.10;2.72;;;25.70;33.70;;;;;;4762146;30;20062;-57
2021/10/15 10:57:18;;;;;;;7.47;3.45;;;25.70;33.90;;;;;;4775938;29;20047;-57
2021/10/15 10:59:46;;;;;;;3.40;2.97;;;25.80;34.20;;;;;;4757325;29;20059;-55
2021/10/15 11:02:20;;;;;;;3.20;2.83;;;25.80;34.40;;;;;;4771369;29;20050;-56
2021/10/15 11:04:56;;;;;;;2.90;2.63;;;25.80;34.60;;;;;;4773693;30;20062;-57
2021/10/15 11:07:26;;;;;;;2.85;2.53;;;25.80;34.60;;;;;;4768449;29;20752;-54
2021/10/15 11:09:59;;;;;;;3.22;2.88;;;25.80;34.70;;;;;;4759010;29;20071;-57
2021/10/15 11:12:58;;;;;;;5.10;2.70;;;25.80;34.60;;;;;;4773934;29;20059;-56
2021/10/15 11:15:27;;;;;;;3.10;2.75;;;25.90;34.40;;;;;;4772953;29;22490;-55
2021/10/15 11:17:55;;;;;;;3.73;2.90;;;25.80;34.20;;;;;;4765536;29;20146;-56
2021/10/15 11:20:30;;;;;;;3.05;2.75;;;25.80;34.10;;;;;;4766368;30;20118;-56
2021/10/15 11:23:11;;;;;;;3.28;2.97;;;25.80;33.90;;;;;;4787546;29;20155;-54
2021/10/15 11:25:42;;;;;;;7.35;2.88;;;25.80;33.80;;;;;;4773950;29;20051;-53
2021/10/15 11:28:11;;;;;;;3.78;3.33;;;25.80;33.80;;;;;;4769713;29;20071;-56
2021/10/15 11:30:45;;;;;;;4.35;2.80;;;25.80;33.80;;;;;;4766222;29;20167;-55
2021/10/15 11:33:14;;;;;;;3.92;3.05;;;25.80;33.80;;;;;;4772377;29;20052;-55
2021/10/15 11:35:45;;;;;;;2.75;2.50;;;25.80;33.70;;;;;;4775817;30;20130;-54
2021/10/15 11:38:21;;;;;;;3.20;2.83;;;25.80;33.60;;;;;;4766566;29;20056;-57
2021/10/15 11:41:05;;;;;;;5.00;3.28;;;25.80;33.60;;;;;;4769214;29;20063;-57
2021/10/15 11:43:35;;;;;;;3.05;2.67;;;25.80;33.60;;;;;;4774510;29;20077;-55
2021/10/15 11:46:06;;;;;;;4.90;3.15;;;25.70;33.50;;;;;;4770158;29;20158;-53
2021/10/15 11:48:41;;;;;;;4.97;2.88;;;25.70;33.40;;;;;;4761817;29;20055;-55
2021/10/15 11:51:11;;;;;;;4.60;2.95;;;25.70;33.60;;;;;;4769103;29;20055;-56
2021/10/15 11:53:41;;;;;;;5.20;2.95;;;25.70;33.60;;;;;;4773225;29;20086;-56
2021/10/15 11:56:11;;;;;;;4.47;3.00;;;25.70;33.50;;;;;;4772848;29;20152;-54
2021/10/15 11:58:41;;;;;;;;;;;25.70;33.70;;;;;;4768256;29;20054;-51
2021/10/15 12:01:16;;;;;;;5.35;2.88;;;25.70;33.80;;;;;;4768585;29;20030;-53
2021/10/15 12:03:55;;;;;;;3.25;2.60;;;25.70;33.70;;;;;;4774020;29;20134;-54
2021/10/15 12:06:46;;;;;;;8.03;3.37;;;25.70;33.70;;;;;;4780397;29;20058;-55
2021/10/15 12:09:17;;;;;;;5.20;3.30;;;25.80;33.70;;;;;;4765498;29;20054;-52
2021/10/15 12:12:05;;;;;;;7.35;3.15;;;25.80;33.80;;;;;;4775476;29;20499;-53
2021/10/15 12:14:34;;;;;;;9.35;3.53;;;25.80;33.70;;;;;;4778735;29;20051;-54
2021/10/15 12:17:04;;;;;;;5.22;3.00;;;25.70;33.70;;;;;;4778639;29;20089;-54
2021/10/15 12:19:48;;;;;;;10.18;3.83;;;25.70;33.80;;;;;;4766583;29;20128;-53
2021/10/15 12:22:24;;;;;;;9.05;3.15;;;25.70;34.00;;;;;;4777929;29;20449;-53
2021/10/15 12:24:57;;;;;;;9.38;3.40;;;25.70;33.80;;;;;;4771352;30;20051;-55
2021/10/15 12:27:38;;;;;;;8.23;2.72;;;25.70;33.70;;;;;;4772071;29;20573;-55
2021/10/15 12:30:15;;;;;;;4.10;2.70;;;25.70;33.50;;;;;;4769244;29;20063;-54
2021/10/15 12:32:43;;;;;;;6.15;2.85;;;25.70;33.40;;;;;;4774450;30;20478;-55
2021/10/15 12:35:16;;;;;;;9.05;3.63;;;25.70;33.30;;;;;;4781148;30;20394;-56
2021/10/15 12:37:55;;;;;;;5.15;3.00;;;25.70;33.20;;;;;;4775254;29;20138;-55
2021/10/15 12:40:39;;;;;;;3.30;2.38;;;25.70;33.30;;;;;;4768610;30;20048;-53
2021/10/15 12:43:11;;;;;;;5.82;3.00;;;25.60;33.20;;;;;;4773693;29;20498;-54
2021/10/15 12:45:57;;;;;;;3.95;2.80;;;25.60;33.10;;;;;;4776283;29;20047;-54
2021/10/15 12:48:30;;;;;;;4.55;2.90;;;25.60;33.30;;;;;;4771015;29;20144;-56
2021/10/15 12:51:06;;;;;;;27.90;3.78;;;25.60;33.40;;;;;;4790449;29;20538;-55
2021/10/15 12:53:43;;;;;;;3.17;2.47;;;25.60;33.40;;;;;;4780293;29;20081;-54
2021/10/15 12:56:16;;;;;;;5.85;2.75;;;25.60;33.40;;;;;;4770988;29;20101;-56
2021/10/15 12:58:50;;;;;;;6.28;2.70;;;25.60;33.60;;;;;;4774241;29;20138;-54
2021/10/15 13:01:28;;;;;;;4.80;2.40;;;25.50;33.80;;;;;;4783117;30;20529;-56
2021/10/15 13:03:57;;;;;;;5.50;2.50;;;25.50;33.80;;;;;;4784612;29;20059;-56
2021/10/15 13:06:30;;;;;;;2.88;2.58;;;25.50;34.00;;;;;;4779015;30;20051;-59
2021/10/15 13:08:58;;;;;;;3.97;3.13;;;25.50;33.90;;;;;;4772672;29;20048;-53
2021/10/15 13:11:26;;;;;;;3.38;2.63;;;25.50;33.90;;;;;;4780766;30;20057;-55
2021/10/15 13:13:55;;;;;;;3.03;2.58;;;25.50;33.90;;;;;;4783682;29;20055;-54